createdAt,value
2023-03-17T00:00:27.798Z,8.00
2023-03-17T00:03:51.571Z,8.00
2023-03-17T00:07:17.741Z,8.00
2023-03-17T00:10:42.759Z,7.90
2023-03-17T00:14:09.404Z,7.90
2023-03-17T00:17:32.982Z,7.90
2023-03-17T00:20:57.052Z,7.90
2023-03-17T00:24:20.701Z,8.00
2023-03-17T00:27:45.839Z,8.00
2023-03-17T00:31:15.044Z,8.00
2023-03-17T00:34:39.556Z,8.00
2023-03-17T00:38:03.340Z,8.00
2023-03-17T00:41:29.439Z,8.00
2023-03-17T00:44:54.538Z,8.10
2023-03-17T00:48:20.584Z,8.10
2023-03-17T00:51:44.954Z,8.00
2023-03-17T00:55:10.385Z,7.90
2023-03-17T00:58:35.217Z,7.90
2023-03-17T01:02:01.225Z,7.80
2023-03-17T01:05:27.023Z,7.70
2023-03-17T01:08:50.636Z,7.60
2023-03-17T01:12:14.666Z,7.60
2023-03-17T01:15:39.723Z,7.60
2023-03-17T01:19:05.629Z,7.60
2023-03-17T01:22:29.918Z,7.70
2023-03-17T01:25:53.558Z,7.50
2023-03-17T01:29:17.478Z,7.60
2023-03-17T01:32:41.124Z,7.60
2023-03-17T01:36:06.612Z,7.70
2023-03-17T01:39:30.203Z,7.80
2023-03-17T01:43:00.531Z,7.90
2023-03-17T01:46:27.442Z,8.00
2023-03-17T01:49:51.223Z,8.00
2023-03-17T01:53:17.371Z,8.00
2023-03-17T01:56:44.923Z,8.00
2023-03-17T02:00:14.685Z,8.00
2023-03-17T02:03:38.937Z,8.00
2023-03-17T02:07:05.203Z,7.90
2023-03-17T02:10:31.049Z,7.80
2023-03-17T02:13:54.750Z,7.70
2023-03-17T02:17:18.948Z,7.70
2023-03-17T02:24:58.130Z,7.60
2023-03-17T02:28:27.066Z,7.60
2023-03-17T02:31:51.052Z,7.60
2023-03-17T02:35:15.761Z,7.60
2023-03-17T02:38:40.245Z,7.60
2023-03-17T02:42:06.309Z,7.50
2023-03-17T02:45:31.151Z,7.40
2023-03-17T02:48:55.501Z,7.50
2023-03-17T02:52:19.057Z,7.40
2023-03-17T02:55:43.621Z,7.40
2023-03-17T02:59:08.625Z,7.30
2023-03-17T03:02:32.235Z,7.30
2023-03-17T03:05:56.118Z,7.20
2023-03-17T03:09:19.751Z,7.20
2023-03-17T03:12:43.422Z,7.10
2023-03-17T03:16:09.287Z,7.10
2023-03-17T03:19:33.192Z,7.00
2023-03-17T03:22:56.765Z,7.00
2023-03-17T03:26:20.547Z,7.00
2023-03-17T03:29:44.323Z,7.00
2023-03-17T03:33:13.064Z,6.90
2023-03-17T03:36:36.925Z,6.90
2023-03-17T03:40:00.541Z,6.80
2023-03-17T03:43:24.394Z,6.80
2023-03-17T03:46:47.989Z,6.80
2023-03-17T03:50:14.302Z,6.80
2023-03-17T03:53:37.820Z,6.90
2023-03-17T03:57:01.357Z,6.90
2023-03-17T04:00:25.830Z,7.00
2023-03-17T04:03:49.467Z,7.00
2023-03-17T04:07:14.413Z,7.00
2023-03-17T04:10:38.063Z,7.00
2023-03-17T04:14:01.729Z,7.00
2023-03-17T04:17:25.496Z,6.90
2023-03-17T04:20:48.995Z,6.90
2023-03-17T04:24:14.771Z,6.90
2023-03-17T04:27:38.593Z,6.80
2023-03-17T04:31:02.460Z,6.80
2023-03-17T04:34:26.555Z,6.80
2023-03-17T04:37:50.975Z,6.80
2023-03-17T04:41:16.199Z,6.70
2023-03-17T04:44:41.014Z,6.70
2023-03-17T04:48:05.204Z,6.70
2023-03-17T04:51:29.169Z,6.70
2023-03-17T04:54:53.201Z,6.70
2023-03-17T04:58:29.885Z,6.70
2023-03-17T05:01:54.346Z,6.60
2023-03-17T05:05:19.822Z,6.60
2023-03-17T05:08:44.836Z,6.60
2023-03-17T05:12:09.973Z,6.70
2023-03-17T05:15:35.058Z,6.70
2023-03-17T05:18:58.867Z,6.70
2023-03-17T05:22:22.624Z,6.80
2023-03-17T05:25:48.212Z,6.70
2023-03-17T05:29:12.334Z,6.70
2023-03-17T05:32:37.578Z,6.80
2023-03-17T05:36:01.440Z,6.80
2023-03-17T05:39:25.199Z,6.70
2023-03-17T05:42:48.905Z,6.70
2023-03-17T05:46:12.977Z,6.70
2023-03-17T05:49:38.515Z,6.70
2023-03-17T05:53:03.082Z,6.70
2023-03-17T05:56:33.255Z,6.60
2023-03-17T05:59:57.368Z,6.70
2023-03-17T06:03:22.264Z,6.70
2023-03-17T06:06:47.414Z,6.80
2023-03-17T06:10:13.678Z,6.80
2023-03-17T06:13:37.527Z,6.80
2023-03-17T06:17:01.219Z,6.90
2023-03-17T06:20:25.101Z,7.00
2023-03-17T06:23:50.097Z,7.00
2023-03-17T06:27:16.836Z,7.00
2023-03-17T06:30:41.011Z,6.90
2023-03-17T06:34:05.568Z,7.00
2023-03-17T06:37:29.698Z,7.10
2023-03-17T06:40:54.643Z,7.10
2023-03-17T06:44:18.232Z,7.20
2023-03-17T06:47:41.833Z,7.30
2023-03-17T06:51:06.247Z,7.40
2023-03-17T06:54:30.004Z,7.60
2023-03-17T06:57:54.906Z,7.90
2023-03-17T07:01:19.377Z,9.10
2023-03-17T07:04:43.015Z,10.00
2023-03-17T07:08:07.104Z,10.50
2023-03-17T07:11:32.629Z,10.60
2023-03-17T07:14:58.973Z,10.40
2023-03-17T07:18:22.563Z,11.00
2023-03-17T07:21:47.148Z,11.70
2023-03-17T07:25:11.410Z,12.10
2023-03-17T07:28:35.228Z,12.20
2023-03-17T07:32:00.276Z,12.70
2023-03-17T07:35:24.335Z,12.90
2023-03-17T07:38:48.666Z,13.80
2023-03-17T07:42:15.251Z,14.50
2023-03-17T07:45:39.069Z,14.60
2023-03-17T07:49:04.309Z,14.90
2023-03-17T07:52:28.865Z,15.00
2023-03-17T07:55:52.608Z,15.70
2023-03-17T07:59:16.342Z,16.50
2023-03-17T08:02:41.020Z,17.90
2023-03-17T08:06:06.525Z,18.80
2023-03-17T08:09:30.174Z,17.90
2023-03-17T08:12:54.384Z,17.40
2023-03-17T08:16:18.574Z,17.20
2023-03-17T08:19:42.330Z,16.70
2023-03-17T08:23:07.406Z,16.20
2023-03-17T08:26:31.120Z,16.10
2023-03-17T08:29:55.654Z,16.30
2023-03-17T08:33:19.401Z,16.80
2023-03-17T08:36:43.282Z,16.80
2023-03-17T08:40:09.989Z,16.20
2023-03-17T08:43:34.634Z,16.40
2023-03-17T08:46:58.552Z,16.70
2023-03-17T08:50:24.132Z,16.00
2023-03-17T08:53:48.144Z,16.80
2023-03-17T08:57:15.634Z,16.70
2023-03-17T09:00:40.758Z,17.00
2023-03-17T09:04:04.745Z,16.70
2023-03-17T09:07:28.542Z,16.20
2023-03-17T09:10:53.155Z,15.40
2023-03-17T09:14:18.359Z,15.00
2023-03-17T09:17:43.582Z,15.30
2023-03-17T09:21:08.668Z,15.70
2023-03-17T09:24:32.362Z,16.00
2023-03-17T09:27:56.663Z,17.70
2023-03-17T09:31:21.668Z,18.30
2023-03-17T09:34:45.963Z,19.10
2023-03-17T09:38:10.221Z,20.10
2023-03-17T09:41:57.065Z,20.10
2023-03-17T09:45:34.699Z,19.50
2023-03-17T09:49:03.750Z,19.70
2023-03-17T09:52:30.395Z,20.10
2023-03-17T09:55:57.799Z,20.50
2023-03-17T09:59:31.229Z,19.60
2023-03-17T10:02:55.515Z,18.90
2023-03-17T10:06:34.417Z,18.70
2023-03-17T10:10:02.960Z,17.90
2023-03-17T10:13:38.272Z,18.20
2023-03-17T10:17:05.555Z,18.50
2023-03-17T10:20:33.103Z,18.50
2023-03-17T10:23:59.251Z,18.90
2023-03-17T10:27:23.015Z,19.20
2023-03-17T10:30:46.635Z,19.00
2023-03-17T10:34:16.071Z,19.40
2023-03-17T10:37:42.581Z,19.00
2023-03-17T10:41:14.724Z,18.90
2023-03-17T10:44:45.105Z,18.90
2023-03-17T10:48:11.061Z,20.20
2023-03-17T10:51:36.854Z,21.80
2023-03-17T10:55:03.649Z,22.30
2023-03-17T10:58:38.308Z,21.10
2023-03-17T11:02:08.102Z,20.80
2023-03-17T11:05:32.256Z,20.20
2023-03-17T11:08:57.017Z,19.30
2023-03-17T11:12:26.734Z,19.50
2023-03-17T11:15:58.336Z,19.40
2023-03-17T11:19:30.665Z,18.50
2023-03-17T11:22:59.575Z,18.40
2023-03-17T11:26:49.481Z,17.90
2023-03-17T11:30:19.968Z,18.00
2023-03-17T11:33:55.036Z,17.80
2023-03-17T11:37:31.437Z,18.00
2023-03-17T11:41:19.925Z,17.80
2023-03-17T11:45:09.110Z,17.60
2023-03-17T11:48:42.640Z,17.80
2023-03-17T11:52:16.258Z,17.90
2023-03-17T11:55:45.914Z,18.10
2023-03-17T11:59:18.386Z,18.10
2023-03-17T12:02:46.540Z,17.80
2023-03-17T12:06:17.942Z,17.60
2023-03-17T12:09:47.292Z,17.60
2023-03-17T12:13:14.407Z,17.70
2023-03-17T12:16:42.025Z,17.60
2023-03-17T12:20:17.704Z,17.30
2023-03-17T12:23:48.060Z,17.20
2023-03-17T12:27:17.136Z,17.50
2023-03-17T12:30:49.314Z,18.00
2023-03-17T12:34:20.328Z,18.40
2023-03-17T12:37:44.119Z,18.40
2023-03-17T12:41:50.051Z,18.50
2023-03-17T12:45:44.541Z,18.10
2023-03-17T12:49:37.196Z,17.70
2023-03-17T12:53:27.319Z,17.50
2023-03-17T12:56:51.336Z,17.80
2023-03-17T13:00:25.154Z,18.20
2023-03-17T13:04:03.321Z,18.60
2023-03-17T13:07:32.493Z,18.60
2023-03-17T13:11:18.804Z,18.40
2023-03-17T13:14:44.265Z,18.20
2023-03-17T13:18:51.141Z,18.30
2023-03-17T13:22:37.018Z,18.30
2023-03-17T13:26:02.717Z,18.30
2023-03-17T13:29:38.744Z,17.70
2023-03-17T13:33:23.159Z,17.60
2023-03-17T13:36:59.211Z,17.90
2023-03-17T13:40:27.421Z,17.70
2023-03-17T13:43:59.368Z,17.70
2023-03-17T13:47:35.667Z,17.80
2023-03-17T13:51:02.338Z,18.10
2023-03-17T13:54:32.866Z,18.20
2023-03-17T13:58:34.256Z,18.20
2023-03-17T14:02:02.767Z,18.10
2023-03-17T14:05:30.733Z,18.00
2023-03-17T14:08:58.378Z,18.20
2023-03-17T14:12:29.275Z,18.30
2023-03-17T14:16:00.152Z,18.10
2023-03-17T14:19:26.909Z,17.80
2023-03-17T14:22:55.166Z,17.70
2023-03-17T14:26:18.800Z,17.80
2023-03-17T14:29:43.232Z,17.70
2023-03-17T14:33:16.109Z,17.90
2023-03-17T14:36:39.750Z,17.80
2023-03-17T14:40:03.545Z,17.80
2023-03-17T14:43:27.242Z,17.70
2023-03-17T14:46:51.053Z,17.40
2023-03-17T14:50:19.414Z,17.40
2023-03-17T14:53:46.365Z,17.30
2023-03-17T14:57:16.097Z,17.10
2023-03-17T15:00:47.004Z,17.10
2023-03-17T15:04:14.331Z,17.10
2023-03-17T15:07:41.142Z,17.10
2023-03-17T15:11:07.288Z,16.80
2023-03-17T15:14:34.461Z,16.70
2023-03-17T15:18:01.087Z,16.60
2023-03-17T15:21:30.687Z,16.60
2023-03-17T15:25:02.883Z,16.50
2023-03-17T15:28:29.398Z,16.40
2023-03-17T15:31:53.274Z,16.50
2023-03-17T15:35:17.187Z,16.50
2023-03-17T15:38:41.157Z,16.40
2023-03-17T15:42:06.608Z,16.40
2023-03-17T15:45:30.459Z,16.30
2023-03-17T15:48:54.564Z,16.20
2023-03-17T15:52:21.505Z,16.00
2023-03-17T15:55:45.602Z,15.60
2023-03-17T15:59:11.176Z,15.60
2023-03-17T16:02:36.353Z,15.40
2023-03-17T16:06:00.299Z,15.20
2023-03-17T16:09:23.972Z,15.20
2023-03-17T16:12:48.020Z,15.20
2023-03-17T16:16:22.071Z,15.20
2023-03-17T16:19:45.912Z,15.20
2023-03-17T16:23:15.322Z,15.10
2023-03-17T16:26:38.837Z,15.10
2023-03-17T16:30:02.428Z,14.90
2023-03-17T16:33:31.011Z,14.70
2023-03-17T16:36:56.382Z,14.60
2023-03-17T16:40:22.450Z,14.60
2023-03-17T16:43:50.864Z,14.60
2023-03-17T16:47:14.767Z,14.50
2023-03-17T16:50:39.838Z,14.50
2023-03-17T16:54:03.488Z,14.50
2023-03-17T16:57:27.329Z,14.50
2023-03-17T17:00:53.122Z,14.40
2023-03-17T17:04:16.754Z,14.40
2023-03-17T17:07:41.759Z,14.40
2023-03-17T17:11:05.499Z,14.40
2023-03-17T17:14:29.266Z,14.40
2023-03-17T17:17:56.059Z,14.40
2023-03-17T17:21:19.899Z,14.30
2023-03-17T17:24:44.842Z,14.20
2023-03-17T17:28:08.695Z,14.20
2023-03-17T17:31:32.508Z,14.10
2023-03-17T17:34:56.146Z,14.20
2023-03-17T17:38:23.086Z,14.10
2023-03-17T17:41:48.381Z,14.10
2023-03-17T17:45:12.266Z,14.00
2023-03-17T17:48:35.955Z,14.00
2023-03-17T17:51:59.527Z,14.00
2023-03-17T17:55:23.138Z,14.00
2023-03-17T17:58:48.422Z,13.90
2023-03-17T18:02:13.607Z,13.90
2023-03-17T18:05:38.112Z,13.90
2023-03-17T18:09:01.788Z,13.80
2023-03-17T18:12:25.843Z,13.80
2023-03-17T18:15:51.761Z,13.90
2023-03-17T18:19:16.331Z,13.90
2023-03-17T18:22:40.905Z,13.90
2023-03-17T18:26:06.585Z,13.90
2023-03-17T18:29:36.147Z,13.90
2023-03-17T18:33:05.729Z,13.80
2023-03-17T18:36:30.451Z,13.80
2023-03-17T18:40:11.991Z,13.80
2023-03-17T18:43:36.477Z,13.80
2023-03-17T18:47:00.893Z,13.80
2023-03-17T18:50:26.432Z,13.80
2023-03-17T18:53:50.159Z,13.80
2023-03-17T18:57:13.728Z,13.80
2023-03-17T19:00:37.391Z,13.70
2023-03-17T19:04:03.786Z,13.70
2023-03-17T19:07:28.708Z,13.60
2023-03-17T19:10:52.431Z,13.60
2023-03-17T19:14:16.207Z,13.50
2023-03-17T19:17:40.192Z,13.50
2023-03-17T19:21:04.664Z,13.40
2023-03-17T19:24:29.670Z,13.30
2023-03-17T19:27:53.351Z,13.30
2023-03-17T19:31:17.411Z,13.30
2023-03-17T19:34:41.321Z,13.30
2023-03-17T19:38:05.021Z,13.30
2023-03-17T19:41:32.272Z,13.30
2023-03-17T19:44:55.860Z,13.20
2023-03-17T19:48:19.571Z,13.20
2023-03-17T19:51:43.182Z,13.20
2023-03-17T19:55:08.398Z,13.10
2023-03-17T19:58:33.546Z,13.20
2023-03-17T20:01:58.384Z,13.20
2023-03-17T20:05:22.190Z,13.20
2023-03-17T20:08:46.160Z,13.20
2023-03-17T20:12:18.783Z,13.20
2023-03-17T20:15:44.511Z,13.20
2023-03-17T20:19:08.468Z,13.10
2023-03-17T20:22:32.370Z,13.00
2023-03-17T20:25:56.039Z,13.00
2023-03-17T20:29:19.823Z,13.00
2023-03-17T20:32:45.290Z,13.00
2023-03-17T20:36:09.556Z,13.00
2023-03-17T20:39:33.280Z,13.00
2023-03-17T20:42:57.093Z,13.00
2023-03-17T20:46:23.454Z,13.00
2023-03-17T20:49:48.754Z,13.00
2023-03-17T20:53:12.338Z,13.00
2023-03-17T20:56:37.345Z,13.10
2023-03-17T21:00:01.156Z,13.10
2023-03-17T21:03:24.848Z,13.10
2023-03-17T21:06:49.922Z,13.20
2023-03-17T21:10:14.244Z,13.20
2023-03-17T21:13:38.626Z,13.20
2023-03-17T21:17:02.518Z,13.20
2023-03-17T21:20:26.286Z,13.20
2023-03-17T21:23:51.442Z,13.20
2023-03-17T21:27:15.671Z,13.30
2023-03-17T21:30:39.268Z,13.30
2023-03-17T21:34:02.837Z,13.30
2023-03-17T21:37:26.472Z,13.20
2023-03-17T21:40:51.568Z,13.30
2023-03-17T21:44:15.907Z,13.20
2023-03-17T21:47:40.834Z,13.20
2023-03-17T21:51:04.914Z,13.10
2023-03-17T21:54:28.702Z,12.90
2023-03-17T21:57:54.009Z,12.80
2023-03-17T22:01:18.664Z,12.80
2023-03-17T22:04:43.345Z,12.70
2023-03-17T22:08:07.490Z,12.60
2023-03-17T22:11:31.862Z,12.60
2023-03-17T22:14:58.700Z,12.70
2023-03-17T22:18:22.350Z,12.70
2023-03-17T22:21:45.957Z,12.70
2023-03-17T22:25:09.989Z,12.60
2023-03-17T22:28:33.731Z,12.70
2023-03-17T22:31:58.829Z,12.60
2023-03-17T22:35:23.410Z,12.60
2023-03-17T22:38:48.187Z,12.60
2023-03-17T22:42:12.044Z,12.60
2023-03-17T22:45:35.859Z,12.50
2023-03-17T22:49:00.925Z,12.60
2023-03-17T22:52:24.759Z,12.60
2023-03-17T22:55:49.049Z,12.60
2023-03-17T22:59:13.212Z,12.70
2023-03-17T23:02:37.771Z,12.70
2023-03-17T23:06:04.802Z,12.80
2023-03-17T23:09:28.532Z,12.80
2023-03-17T23:12:52.556Z,12.90
2023-03-17T23:16:17.255Z,12.90
2023-03-17T23:19:41.045Z,12.90
2023-03-17T23:23:06.948Z,12.90
2023-03-17T23:26:31.954Z,12.90
2023-03-17T23:29:55.664Z,12.80
2023-03-17T23:33:21.588Z,12.70
2023-03-17T23:36:45.289Z,12.50
2023-03-17T23:40:13.783Z,12.50
2023-03-17T23:43:38.412Z,12.40
2023-03-17T23:47:02.539Z,12.40
2023-03-17T23:50:26.241Z,12.30
2023-03-17T23:53:51.861Z,12.20
2023-03-17T23:57:17.149Z,12.10
